Historyczne dane pomiarowe

Dodano dane terminowe – wersja testowa.

Dane z okresu 1951-2019

Wersja bazy: 1.34 [2019-03-16, lista zmian], aktualizacja planowana na 2019-04-15

Dane meteo z obszaru Polski uzyskane na podstawie danych udostępnionych przez Instytut Meteorologii i Gospodarki Wodnej – Państwowy Instytut Badawczy.

 

Wybierz Datę:    

       

TemperaturaWilgotnośćWiatrCiśnienieOpadyŚniegCzas trwania zjawisk
 Stacja t tx tn tng RH VA  wxwx mslp ppp RRR   cm mm wxwxwxwxwxwxwx
1994-08-14 12.0 18.7 9.4- 83.3- 7.0 2.7---- 6.5------------
1994-08-13 16.7 20.2 13.8- 87.0- 3.0 2.0---- 0.0------------
1994-08-12 17.9 22.7 8.5- 77.0- 2.0 1.7---- 0.0------------
1994-08-11 18.8 26.0 8.8- 72.0- 2.3 1.3---- 0.0------------
1994-08-10 18.5 23.8 10.2- 78.5- 3.0 2.0---- 0.0------------
1994-08-09 19.6 24.0 13.1- 85.3- 4.7 2.3---- 3.0------------
1994-08-08 20.6 27.0 14.0- 80.5- 3.0 2.0---- 0.0------------
1994-08-07 21.0 27.1 14.5- 76.5- 2.3 3.0---- 0.0------------
1994-08-06 25.1 34.8 16.0- 72.5- 5.3 1.7---- 4.5------------
1994-08-05 23.3 31.7 13.1- 71.5- 1.3 1.3---- 0.0------------
1994-08-04 20.2 26.2 16.0- 84.5- 2.0 2.0---- 0.0------------
1994-08-03 20.5 28.0 19.7- 78.8- 3.0 2.7---- 0.0------------
1994-08-02 27.6 35.0 16.5- 63.0- 2.0 0.7---- 0.0------------
1994-08-01 29.3 37.5 21.0- 63.0- 0.7 0.3---- 0.0------------
1994-07-31 30.3 38.2 18.8- 57.3- 1.0 0.7---- 0.0------------
1994-07-30 29.4 37.3 16.5- 57.8- 1.3 0.3---- 0.0------------
1994-07-29 27.1 36.9 14.5- 65.8- 1.3 0.3---- 0.0------------
1994-07-28 26.2 35.0 13.6- 59.3- 0.7 0.3---- 0.0------------
1994-07-27 24.5 30.0 12.5- 60.8- 0.3 0.3---- 0.0------------
1994-07-26 26.1 33.2 15.0- 61.8- 0.3 0.3---- 0.0------------
1994-07-25 21.5 30.3 11.5- 61.0- 1.0 1.0---- 0.0------------
1994-07-24 21.7 30.1 10.2- 58.8- 1.3 1.3---- 0.0------------
1994-07-23 19.0 28.1 8.1- 58.5- 2.0 2.0---- 0.0------------
1994-07-22 18.4 25.4 8.5- 75.3- 1.7 1.3---- 0.0------------
1994-07-21 18.1 26.2 7.0- 67.8- 2.3 2.0---- 0.0------------
1994-07-20 16.6 23.0 6.0- 62.8- 2.3 1.3---- 0.0------------
1994-07-19 16.3 20.7 7.5- 67.8- 2.7 2.3---- 0.0------------
1994-07-18 17.8 21.7 10.2- 72.5- 1.3 1.7---- 0.0------------
1994-07-17 18.2 24.9 11.8- 76.5- 5.3 4.0---- 0.0------------
1994-07-16 22.0 29.8 13.2- 81.5- 3.0 2.0---- 0.0------------
1994-07-15 25.6 33.5 13.7- 69.8- 1.7 1.3---- 0.0------------
1994-07-14 26.0 32.8 15.5- 66.0- 1.7 1.0---- 0.0------------
1994-07-13 25.4 31.2 19.3- 53.3- 1.7 1.3---- 0.0------------
1994-07-12 24.1 30.5 12.0- 62.5- 2.0 1.0---- 0.0------------
1994-07-11 19.7 27.0 11.1- 78.5- 2.0 1.3---- 0.0------------
1994-07-10 18.2 25.1 9.1- 76.8- 1.3 0.3---- 0.0------------
1994-07-09 14.6 19.0 8.4- 85.0- 2.3 1.3---- 0.0------------
1994-07-08 14.7 20.3 10.7- 84.8- 6.3 1.0---- 14.5------------
1994-07-07 16.2 24.1 6.1- 69.5- 1.3 1.0---- 0.0------------
1994-07-06 15.6 22.8 9.0- 74.0- 2.3 1.0---- 0.0------------
1994-07-05 15.5 22.3 6.2- 67.5- 2.0 1.0---- 0.0------------
1994-07-04 18.5 25.0 6.2- 68.0- 2.0 1.0---- 0.0------------
1994-07-03 16.4 22.2 4.4- 66.5- 1.0 1.0---- 0.0------------
1994-07-02 16.0 21.4 6.1- 75.8- 2.0 1.0---- 0.0------------
1994-07-01 15.3 19.9 10.0- 81.5- 2.3 1.7---- 0.0------------
1994-06-30 18.0 26.6 16.0- 75.0- 3.0 2.0---- 0.0------------
1994-06-29 22.0 29.8 10.4- 68.3- 2.0 2.0---- 0.0------------
1994-06-28 18.6 25.8 7.8- 74.5- 1.7 2.0---- 0.0------------
1994-06-27 19.3 27.1 13.2- 76.3- 3.0 1.7---- 0.0------------
1994-06-26 20.3 29.1 5.8- 62.5- 2.3 1.3---- 0.0------------
1994-06-25 14.1 22.0 2.5- 71.0- 2.0 1.0---- 0.0------------
1994-06-24 12.7 16.6 8.3- 70.3- 3.0 2.0---- 0.0------------
1994-06-23 12.8 15.5 10.2- 70.3- 5.3 12.0---- 2.6------------
1994-06-22 15.9 20.1 10.1- 84.5- 7.7 7.3---- 1.6------------
1994-06-21 15.3 20.7 3.8- 68.3- 1.7 1.0---- 0.6------------
1994-06-20 12.0 15.0 9.8- 71.0- 3.3 4.0---- 0.0------------
1994-06-19 10.3 14.6 8.5- 93.3- 8.0 4.0---- 8.9------------
1994-06-18 9.6 15.7 1.3- 72.3- 5.0 2.0---- 1.5------------
1994-06-17 7.8 10.8 4.0- 86.3- 6.7 3.0---- 3.2------------
1994-06-16 10.1 13.1 7.8- 84.0- 7.0 4.0---- 2.5------------
1526.6 ms

 

Źródłem pochodzenia danych jest Instytut Meteorologii i Gospodarki Wodnej – Państwowy Instytut Badawczy. Dane Instytutu Meteorologii i Gospodarki Wodnej – Państwowego Instytutu Badawczego zostały przetworzone.

Dane źródłowe można odnaleźć na stronie https://dane.imgw.pl